sensor_id;sensor_type;location;lat;lon;timestamp;temperature;humidity
19898;DHT22;10111;50.814;4.572;2023-05-07T00:00:00;14.90;99.90
19898;DHT22;10111;50.814;4.572;2023-05-07T00:02:26;15.00;99.90
19898;DHT22;10111;50.814;4.572;2023-05-07T00:04:52;15.00;99.90
19898;DHT22;10111;50.814;4.572;2023-05-07T00:07:18;15.10;99.90
19898;DHT22;10111;50.814;4.572;2023-05-07T00:09:44;15.10;99.90
19898;DHT22;10111;50.814;4.572;2023-05-07T00:12:09;15.10;99.90
19898;DHT22;10111;50.814;4.572;2023-05-07T00:14:35;15.20;99.90
19898;DHT22;10111;50.814;4.572;2023-05-07T00:17:01;15.20;99.90
19898;DHT22;10111;50.814;4.572;2023-05-07T00:19:27;15.20;99.90
19898;DHT22;10111;50.814;4.572;2023-05-07T00:21:53;15.30;99.90
19898;DHT22;10111;50.814;4.572;2023-05-07T00:24:22;15.30;99.90
19898;DHT22;10111;50.814;4.572;2023-05-07T00:26:47;15.30;99.90
19898;DHT22;10111;50.814;4.572;2023-05-07T00:29:13;15.30;99.90
19898;DHT22;10111;50.814;4.572;2023-05-07T00:31:38;15.30;99.90
19898;DHT22;10111;50.814;4.572;2023-05-07T00:34:04;15.30;99.90
19898;DHT22;10111;50.814;4.572;2023-05-07T00:36:29;15.30;99.90
19898;DHT22;10111;50.814;4.572;2023-05-07T00:38:56;15.30;99.90
19898;DHT22;10111;50.814;4.572;2023-05-07T00:41:24;15.30;99.90
19898;DHT22;10111;50.814;4.572;2023-05-07T00:43:50;15.30;99.90
19898;DHT22;10111;50.814;4.572;2023-05-07T00:46:17;15.30;99.90
19898;DHT22;10111;50.814;4.572;2023-05-07T00:48:44;15.30;99.90
19898;DHT22;10111;50.814;4.572;2023-05-07T00:51:10;15.30;99.90
19898;DHT22;10111;50.814;4.572;2023-05-07T00:53:37;15.30;99.90
19898;DHT22;10111;50.814;4.572;2023-05-07T00:56:03;15.30;99.90
19898;DHT22;10111;50.814;4.572;2023-05-07T00:58:29;15.20;99.90
19898;DHT22;10111;50.814;4.572;2023-05-07T01:00:56;15.30;99.90
19898;DHT22;10111;50.814;4.572;2023-05-07T01:03:21;15.30;99.90
19898;DHT22;10111;50.814;4.572;2023-05-07T01:05:48;15.30;99.90
19898;DHT22;10111;50.814;4.572;2023-05-07T01:08:15;15.30;99.90
19898;DHT22;10111;50.814;4.572;2023-05-07T01:10:42;15.30;99.90
19898;DHT22;10111;50.814;4.572;2023-05-07T01:13:09;15.30;99.90
19898;DHT22;10111;50.814;4.572;2023-05-07T01:15:36;15.30;99.90
19898;DHT22;10111;50.814;4.572;2023-05-07T01:18:02;15.30;99.90
19898;DHT22;10111;50.814;4.572;2023-05-07T01:20:28;15.30;99.90
19898;DHT22;10111;50.814;4.572;2023-05-07T01:22:54;15.30;99.90
19898;DHT22;10111;50.814;4.572;2023-05-07T01:25:20;15.20;99.90
19898;DHT22;10111;50.814;4.572;2023-05-07T01:27:46;15.20;99.90
19898;DHT22;10111;50.814;4.572;2023-05-07T01:30:12;15.20;99.90
19898;DHT22;10111;50.814;4.572;2023-05-07T01:32:52;15.20;99.90
19898;DHT22;10111;50.814;4.572;2023-05-07T01:35:20;15.20;99.90
19898;DHT22;10111;50.814;4.572;2023-05-07T01:37:48;15.10;99.90
19898;DHT22;10111;50.814;4.572;2023-05-07T01:40:14;15.20;99.90
19898;DHT22;10111;50.814;4.572;2023-05-07T01:42:43;15.20;99.90
19898;DHT22;10111;50.814;4.572;2023-05-07T01:45:09;15.10;99.90
19898;DHT22;10111;50.814;4.572;2023-05-07T01:47:36;15.20;99.90
19898;DHT22;10111;50.814;4.572;2023-05-07T01:50:04;15.20;99.90
19898;DHT22;10111;50.814;4.572;2023-05-07T01:52:31;15.20;99.90
19898;DHT22;10111;50.814;4.572;2023-05-07T01:54:57;15.20;99.90
19898;DHT22;10111;50.814;4.572;2023-05-07T01:57:22;15.20;99.90
19898;DHT22;10111;50.814;4.572;2023-05-07T01:59:48;15.20;99.90
19898;DHT22;10111;50.814;4.572;2023-05-07T02:02:13;15.20;99.90
19898;DHT22;10111;50.814;4.572;2023-05-07T02:04:39;15.20;99.90
19898;DHT22;10111;50.814;4.572;2023-05-07T02:07:05;15.20;99.90
19898;DHT22;10111;50.814;4.572;2023-05-07T02:09:30;15.20;99.90
19898;DHT22;10111;50.814;4.572;2023-05-07T02:11:56;15.10;99.90
19898;DHT22;10111;50.814;4.572;2023-05-07T02:14:22;15.20;99.90
19898;DHT22;10111;50.814;4.572;2023-05-07T02:16:47;15.20;99.90
19898;DHT22;10111;50.814;4.572;2023-05-07T02:19:13;15.20;99.90
19898;DHT22;10111;50.814;4.572;2023-05-07T02:21:39;15.20;99.90
19898;DHT22;10111;50.814;4.572;2023-05-07T02:24:05;15.20;99.90
19898;DHT22;10111;50.814;4.572;2023-05-07T02:26:30;15.20;99.90
19898;DHT22;10111;50.814;4.572;2023-05-07T02:28:56;15.10;99.90
19898;DHT22;10111;50.814;4.572;2023-05-07T02:31:22;15.10;99.90
19898;DHT22;10111;50.814;4.572;2023-05-07T02:33:47;15.20;99.90
19898;DHT22;10111;50.814;4.572;2023-05-07T02:36:13;15.10;99.90
19898;DHT22;10111;50.814;4.572;2023-05-07T02:38:38;15.20;99.90
19898;DHT22;10111;50.814;4.572;2023-05-07T02:41:04;15.20;99.90
19898;DHT22;10111;50.814;4.572;2023-05-07T02:43:30;15.20;99.90
19898;DHT22;10111;50.814;4.572;2023-05-07T02:46:07;15.20;99.90
19898;DHT22;10111;50.814;4.572;2023-05-07T02:48:33;15.20;99.90
19898;DHT22;10111;50.814;4.572;2023-05-07T02:50:59;15.10;99.90
19898;DHT22;10111;50.814;4.572;2023-05-07T02:53:26;15.10;99.90
19898;DHT22;10111;50.814;4.572;2023-05-07T02:55:56;15.10;99.90
19898;DHT22;10111;50.814;4.572;2023-05-07T02:58:22;15.00;99.90
19898;DHT22;10111;50.814;4.572;2023-05-07T03:00:48;15.00;99.90
19898;DHT22;10111;50.814;4.572;2023-05-07T03:03:14;15.00;99.90
19898;DHT22;10111;50.814;4.572;2023-05-07T03:05:39;14.90;99.90
19898;DHT22;10111;50.814;4.572;2023-05-07T03:08:05;14.90;99.90
19898;DHT22;10111;50.814;4.572;2023-05-07T03:10:31;14.90;99.90
19898;DHT22;10111;50.814;4.572;2023-05-07T03:12:56;14.90;99.90
19898;DHT22;10111;50.814;4.572;2023-05-07T03:15:22;14.90;99.90
19898;DHT22;10111;50.814;4.572;2023-05-07T03:17:48;14.90;99.90
19898;DHT22;10111;50.814;4.572;2023-05-07T03:20:14;14.90;99.90
19898;DHT22;10111;50.814;4.572;2023-05-07T03:22:40;14.80;99.90
19898;DHT22;10111;50.814;4.572;2023-05-07T03:25:06;14.80;99.90
19898;DHT22;10111;50.814;4.572;2023-05-07T03:27:32;14.90;99.90
19898;DHT22;10111;50.814;4.572;2023-05-07T03:29:58;14.90;99.90
19898;DHT22;10111;50.814;4.572;2023-05-07T03:32:23;14.90;99.90
19898;DHT22;10111;50.814;4.572;2023-05-07T03:34:50;14.90;99.90
19898;DHT22;10111;50.814;4.572;2023-05-07T03:37:15;14.90;99.90
19898;DHT22;10111;50.814;4.572;2023-05-07T03:39:41;14.90;99.90
19898;DHT22;10111;50.814;4.572;2023-05-07T03:42:07;14.90;99.90
19898;DHT22;10111;50.814;4.572;2023-05-07T03:44:32;14.90;99.90
19898;DHT22;10111;50.814;4.572;2023-05-07T03:46:58;14.90;99.90
19898;DHT22;10111;50.814;4.572;2023-05-07T03:49:24;14.90;99.90
19898;DHT22;10111;50.814;4.572;2023-05-07T03:51:49;14.90;99.90
19898;DHT22;10111;50.814;4.572;2023-05-07T03:54:15;14.90;99.90
19898;DHT22;10111;50.814;4.572;2023-05-07T03:56:41;14.90;99.90
19898;DHT22;10111;50.814;4.572;2023-05-07T03:59:06;14.90;99.90
19898;DHT22;10111;50.814;4.572;2023-05-07T04:01:32;14.90;99.90
19898;DHT22;10111;50.814;4.572;2023-05-07T04:03:57;15.00;99.90
19898;DHT22;10111;50.814;4.572;2023-05-07T04:06:23;15.00;99.90
19898;DHT22;10111;50.814;4.572;2023-05-07T04:08:49;15.00;99.90
19898;DHT22;10111;50.814;4.572;2023-05-07T04:11:15;15.00;99.90
19898;DHT22;10111;50.814;4.572;2023-05-07T04:13:41;15.00;99.90
19898;DHT22;10111;50.814;4.572;2023-05-07T04:16:07;14.90;99.90
19898;DHT22;10111;50.814;4.572;2023-05-07T04:18:33;14.90;99.90
19898;DHT22;10111;50.814;4.572;2023-05-07T04:20:58;14.90;99.90
19898;DHT22;10111;50.814;4.572;2023-05-07T04:23:24;14.90;99.90
19898;DHT22;10111;50.814;4.572;2023-05-07T04:25:50;14.90;99.90
19898;DHT22;10111;50.814;4.572;2023-05-07T04:28:16;14.90;99.90
19898;DHT22;10111;50.814;4.572;2023-05-07T04:30:41;14.90;99.90
19898;DHT22;10111;50.814;4.572;2023-05-07T04:33:07;14.90;99.90
19898;DHT22;10111;50.814;4.572;2023-05-07T04:35:33;14.90;99.90
19898;DHT22;10111;50.814;4.572;2023-05-07T04:38:00;14.90;99.90
19898;DHT22;10111;50.814;4.572;2023-05-07T04:40:25;14.90;99.90
19898;DHT22;10111;50.814;4.572;2023-05-07T04:42:51;14.90;99.90
19898;DHT22;10111;50.814;4.572;2023-05-07T04:45:18;15.00;99.90
19898;DHT22;10111;50.814;4.572;2023-05-07T04:47:44;15.00;99.90
19898;DHT22;10111;50.814;4.572;2023-05-07T04:50:10;15.00;99.90
19898;DHT22;10111;50.814;4.572;2023-05-07T04:52:36;15.00;99.90
19898;DHT22;10111;50.814;4.572;2023-05-07T04:55:02;15.10;99.90
19898;DHT22;10111;50.814;4.572;2023-05-07T04:57:28;15.10;99.90
19898;DHT22;10111;50.814;4.572;2023-05-07T04:59:54;15.10;99.90
19898;DHT22;10111;50.814;4.572;2023-05-07T05:02:19;15.20;99.90
19898;DHT22;10111;50.814;4.572;2023-05-07T05:04:45;15.20;99.90
19898;DHT22;10111;50.814;4.572;2023-05-07T05:07:11;15.20;99.90
19898;DHT22;10111;50.814;4.572;2023-05-07T05:09:37;15.20;99.90
19898;DHT22;10111;50.814;4.572;2023-05-07T05:12:02;15.30;99.90
19898;DHT22;10111;50.814;4.572;2023-05-07T05:14:29;15.30;99.90
19898;DHT22;10111;50.814;4.572;2023-05-07T05:16:54;15.30;99.90
19898;DHT22;10111;50.814;4.572;2023-05-07T05:19:20;15.40;99.90
19898;DHT22;10111;50.814;4.572;2023-05-07T05:21:46;15.40;99.90
19898;DHT22;10111;50.814;4.572;2023-05-07T05:24:11;15.50;99.90
19898;DHT22;10111;50.814;4.572;2023-05-07T05:26:37;15.60;99.90
19898;DHT22;10111;50.814;4.572;2023-05-07T05:29:03;15.60;99.90
19898;DHT22;10111;50.814;4.572;2023-05-07T05:31:29;15.60;99.90
19898;DHT22;10111;50.814;4.572;2023-05-07T05:33:54;15.60;99.90
19898;DHT22;10111;50.814;4.572;2023-05-07T05:36:20;15.70;99.90
19898;DHT22;10111;50.814;4.572;2023-05-07T05:38:45;15.60;99.90
19898;DHT22;10111;50.814;4.572;2023-05-07T05:41:11;15.60;99.90
19898;DHT22;10111;50.814;4.572;2023-05-07T05:43:37;15.70;99.90
19898;DHT22;10111;50.814;4.572;2023-05-07T05:46:02;15.70;99.90
19898;DHT22;10111;50.814;4.572;2023-05-07T05:48:29;15.80;99.90
19898;DHT22;10111;50.814;4.572;2023-05-07T05:50:55;15.80;99.90
19898;DHT22;10111;50.814;4.572;2023-05-07T05:53:21;15.90;99.90
19898;DHT22;10111;50.814;4.572;2023-05-07T05:55:47;15.90;99.90
19898;DHT22;10111;50.814;4.572;2023-05-07T05:58:12;15.80;99.90
19898;DHT22;10111;50.814;4.572;2023-05-07T06:00:38;15.80;99.90
19898;DHT22;10111;50.814;4.572;2023-05-07T06:03:04;15.90;99.90
19898;DHT22;10111;50.814;4.572;2023-05-07T06:05:29;15.90;99.90
19898;DHT22;10111;50.814;4.572;2023-05-07T06:07:56;16.00;99.90
19898;DHT22;10111;50.814;4.572;2023-05-07T06:10:21;16.00;99.90
19898;DHT22;10111;50.814;4.572;2023-05-07T06:12:47;16.10;99.90
19898;DHT22;10111;50.814;4.572;2023-05-07T06:15:12;16.10;99.90
19898;DHT22;10111;50.814;4.572;2023-05-07T06:17:38;16.10;99.90
19898;DHT22;10111;50.814;4.572;2023-05-07T06:20:04;16.10;99.90
19898;DHT22;10111;50.814;4.572;2023-05-07T06:22:30;16.10;99.90
19898;DHT22;10111;50.814;4.572;2023-05-07T06:24:56;16.20;99.90
19898;DHT22;10111;50.814;4.572;2023-05-07T06:27:21;16.20;99.90
19898;DHT22;10111;50.814;4.572;2023-05-07T06:29:48;16.20;99.90
19898;DHT22;10111;50.814;4.572;2023-05-07T06:32:14;16.20;99.90
19898;DHT22;10111;50.814;4.572;2023-05-07T06:34:40;16.20;99.90
19898;DHT22;10111;50.814;4.572;2023-05-07T06:37:06;16.30;99.90
19898;DHT22;10111;50.814;4.572;2023-05-07T06:39:32;16.30;99.90
19898;DHT22;10111;50.814;4.572;2023-05-07T06:41:59;16.30;99.90
19898;DHT22;10111;50.814;4.572;2023-05-07T06:44:25;16.30;99.90
19898;DHT22;10111;50.814;4.572;2023-05-07T06:46:51;16.40;99.90
19898;DHT22;10111;50.814;4.572;2023-05-07T06:49:16;16.40;99.90
19898;DHT22;10111;50.814;4.572;2023-05-07T06:51:42;16.50;99.90
19898;DHT22;10111;50.814;4.572;2023-05-07T06:54:08;16.50;99.90
19898;DHT22;10111;50.814;4.572;2023-05-07T06:56:33;16.50;99.90
19898;DHT22;10111;50.814;4.572;2023-05-07T06:59:00;16.60;99.90
19898;DHT22;10111;50.814;4.572;2023-05-07T07:01:26;16.60;99.90
19898;DHT22;10111;50.814;4.572;2023-05-07T07:03:52;16.70;99.90
19898;DHT22;10111;50.814;4.572;2023-05-07T07:06:17;16.80;99.90
19898;DHT22;10111;50.814;4.572;2023-05-07T07:08:43;16.90;99.90
19898;DHT22;10111;50.814;4.572;2023-05-07T07:11:10;16.90;99.90
19898;DHT22;10111;50.814;4.572;2023-05-07T07:13:36;17.00;99.90
19898;DHT22;10111;50.814;4.572;2023-05-07T07:16:01;17.10;99.90
19898;DHT22;10111;50.814;4.572;2023-05-07T07:18:27;17.10;99.90
19898;DHT22;10111;50.814;4.572;2023-05-07T07:20:53;17.20;99.90
19898;DHT22;10111;50.814;4.572;2023-05-07T07:23:18;17.20;99.90
19898;DHT22;10111;50.814;4.572;2023-05-07T07:25:44;17.20;99.90
19898;DHT22;10111;50.814;4.572;2023-05-07T07:28:10;17.20;99.90
19898;DHT22;10111;50.814;4.572;2023-05-07T07:30:36;17.20;99.90
19898;DHT22;10111;50.814;4.572;2023-05-07T07:33:02;17.20;99.90
19898;DHT22;10111;50.814;4.572;2023-05-07T07:35:34;17.20;99.90
19898;DHT22;10111;50.814;4.572;2023-05-07T07:38:00;17.30;99.90
19898;DHT22;10111;50.814;4.572;2023-05-07T07:40:27;17.30;99.90
19898;DHT22;10111;50.814;4.572;2023-05-07T07:42:53;17.30;99.90
19898;DHT22;10111;50.814;4.572;2023-05-07T07:45:19;17.40;99.90
19898;DHT22;10111;50.814;4.572;2023-05-07T07:47:45;17.40;99.90
19898;DHT22;10111;50.814;4.572;2023-05-07T07:50:11;17.30;99.90
19898;DHT22;10111;50.814;4.572;2023-05-07T07:52:37;17.30;99.90
19898;DHT22;10111;50.814;4.572;2023-05-07T07:55:03;17.30;99.90
19898;DHT22;10111;50.814;4.572;2023-05-07T07:57:30;17.30;99.90
19898;DHT22;10111;50.814;4.572;2023-05-07T07:59:55;17.30;99.90
19898;DHT22;10111;50.814;4.572;2023-05-07T08:02:21;17.40;99.90
19898;DHT22;10111;50.814;4.572;2023-05-07T08:04:47;17.40;99.90
19898;DHT22;10111;50.814;4.572;2023-05-07T08:07:13;17.50;99.90
19898;DHT22;10111;50.814;4.572;2023-05-07T08:09:39;17.50;99.90
19898;DHT22;10111;50.814;4.572;2023-05-07T08:12:06;17.50;99.90
19898;DHT22;10111;50.814;4.572;2023-05-07T08:14:32;17.50;99.90
19898;DHT22;10111;50.814;4.572;2023-05-07T08:16:57;17.50;99.90
19898;DHT22;10111;50.814;4.572;2023-05-07T08:19:23;17.50;99.90
19898;DHT22;10111;50.814;4.572;2023-05-07T08:21:49;17.50;99.90
19898;DHT22;10111;50.814;4.572;2023-05-07T08:24:15;17.60;99.90
19898;DHT22;10111;50.814;4.572;2023-05-07T08:26:41;17.60;99.90
19898;DHT22;10111;50.814;4.572;2023-05-07T08:29:07;17.70;99.90
19898;DHT22;10111;50.814;4.572;2023-05-07T08:31:32;17.60;99.90
19898;DHT22;10111;50.814;4.572;2023-05-07T08:33:59;17.60;99.90
19898;DHT22;10111;50.814;4.572;2023-05-07T08:36:25;17.60;99.90
19898;DHT22;10111;50.814;4.572;2023-05-07T08:38:54;17.70;99.90
19898;DHT22;10111;50.814;4.572;2023-05-07T08:41:20;17.80;99.90
19898;DHT22;10111;50.814;4.572;2023-05-07T08:43:50;17.70;99.90
19898;DHT22;10111;50.814;4.572;2023-05-07T08:46:22;17.70;99.90
19898;DHT22;10111;50.814;4.572;2023-05-07T08:48:51;17.80;99.90
19898;DHT22;10111;50.814;4.572;2023-05-07T08:51:18;17.80;99.90
19898;DHT22;10111;50.814;4.572;2023-05-07T08:53:46;17.90;99.90
19898;DHT22;10111;50.814;4.572;2023-05-07T08:56:14;17.90;99.90
19898;DHT22;10111;50.814;4.572;2023-05-07T08:58:41;17.90;99.90
19898;DHT22;10111;50.814;4.572;2023-05-07T09:01:09;18.00;99.90
19898;DHT22;10111;50.814;4.572;2023-05-07T09:03:37;18.10;99.90
19898;DHT22;10111;50.814;4.572;2023-05-07T09:06:03;18.10;99.90
19898;DHT22;10111;50.814;4.572;2023-05-07T09:08:29;18.10;99.90
19898;DHT22;10111;50.814;4.572;2023-05-07T09:10:55;18.30;99.90
19898;DHT22;10111;50.814;4.572;2023-05-07T09:13:21;18.50;99.90
19898;DHT22;10111;50.814;4.572;2023-05-07T09:15:46;18.60;99.90
19898;DHT22;10111;50.814;4.572;2023-05-07T09:18:12;18.70;99.90
19898;DHT22;10111;50.814;4.572;2023-05-07T09:20:38;18.80;99.90
19898;DHT22;10111;50.814;4.572;2023-05-07T09:23:04;18.80;99.90
19898;DHT22;10111;50.814;4.572;2023-05-07T09:25:32;18.70;99.90
19898;DHT22;10111;50.814;4.572;2023-05-07T09:27:58;18.70;99.90
19898;DHT22;10111;50.814;4.572;2023-05-07T09:30:28;18.60;99.90
19898;DHT22;10111;50.814;4.572;2023-05-07T09:32:54;18.60;99.90
19898;DHT22;10111;50.814;4.572;2023-05-07T09:35:20;18.60;99.90
19898;DHT22;10111;50.814;4.572;2023-05-07T09:37:53;18.60;99.90
19898;DHT22;10111;50.814;4.572;2023-05-07T09:40:23;18.50;99.90
19898;DHT22;10111;50.814;4.572;2023-05-07T09:42:50;18.40;99.90
19898;DHT22;10111;50.814;4.572;2023-05-07T09:45:42;18.40;99.90
19898;DHT22;10111;50.814;4.572;2023-05-07T09:48:08;18.30;99.90
19898;DHT22;10111;50.814;4.572;2023-05-07T09:50:49;18.30;99.90
19898;DHT22;10111;50.814;4.572;2023-05-07T09:53:16;18.30;99.90
19898;DHT22;10111;50.814;4.572;2023-05-07T09:55:43;18.30;99.90
19898;DHT22;10111;50.814;4.572;2023-05-07T09:58:09;18.30;99.90
19898;DHT22;10111;50.814;4.572;2023-05-07T10:00:37;18.30;99.90
19898;DHT22;10111;50.814;4.572;2023-05-07T10:03:06;18.30;99.90
19898;DHT22;10111;50.814;4.572;2023-05-07T10:05:32;18.30;99.90
19898;DHT22;10111;50.814;4.572;2023-05-07T10:07:59;18.30;99.90
19898;DHT22;10111;50.814;4.572;2023-05-07T10:10:26;18.30;99.90
19898;DHT22;10111;50.814;4.572;2023-05-07T10:12:53;18.40;99.90
19898;DHT22;10111;50.814;4.572;2023-05-07T10:15:20;18.40;99.90
19898;DHT22;10111;50.814;4.572;2023-05-07T10:17:46;18.30;99.90
19898;DHT22;10111;50.814;4.572;2023-05-07T10:20:13;18.40;99.90
19898;DHT22;10111;50.814;4.572;2023-05-07T10:22:42;18.40;99.90
19898;DHT22;10111;50.814;4.572;2023-05-07T10:25:23;18.40;99.90
19898;DHT22;10111;50.814;4.572;2023-05-07T10:27:51;18.50;99.90
19898;DHT22;10111;50.814;4.572;2023-05-07T10:30:35;18.50;99.90
19898;DHT22;10111;50.814;4.572;2023-05-07T10:33:05;18.60;99.90
19898;DHT22;10111;50.814;4.572;2023-05-07T10:35:40;18.60;99.90
19898;DHT22;10111;50.814;4.572;2023-05-07T10:38:06;18.60;99.90
19898;DHT22;10111;50.814;4.572;2023-05-07T10:40:33;18.60;99.90
19898;DHT22;10111;50.814;4.572;2023-05-07T10:43:00;18.60;99.90
19898;DHT22;10111;50.814;4.572;2023-05-07T10:45:27;18.70;99.90
19898;DHT22;10111;50.814;4.572;2023-05-07T10:48:10;18.80;99.90
19898;DHT22;10111;50.814;4.572;2023-05-07T10:50:40;18.90;99.90
19898;DHT22;10111;50.814;4.572;2023-05-07T10:55:48;18.90;99.90
19898;DHT22;10111;50.814;4.572;2023-05-07T10:58:27;19.00;99.90
19898;DHT22;10111;50.814;4.572;2023-05-07T11:01:00;19.00;99.90
19898;DHT22;10111;50.814;4.572;2023-05-07T11:03:27;19.10;99.90
19898;DHT22;10111;50.814;4.572;2023-05-07T11:06:10;19.20;99.90
19898;DHT22;10111;50.814;4.572;2023-05-07T11:09:03;19.30;99.90
19898;DHT22;10111;50.814;4.572;2023-05-07T11:11:49;19.40;99.90
19898;DHT22;10111;50.814;4.572;2023-05-07T11:17:07;19.60;99.90
19898;DHT22;10111;50.814;4.572;2023-05-07T11:19:53;19.70;99.90
19898;DHT22;10111;50.814;4.572;2023-05-07T11:24:59;19.80;99.90
19898;DHT22;10111;50.814;4.572;2023-05-07T11:27:26;19.90;99.90
19898;DHT22;10111;50.814;4.572;2023-05-07T11:29:52;20.00;99.90
19898;DHT22;10111;50.814;4.572;2023-05-07T11:32:25;20.00;99.90
19898;DHT22;10111;50.814;4.572;2023-05-07T11:34:52;20.10;99.90
19898;DHT22;10111;50.814;4.572;2023-05-07T11:37:19;20.20;99.90
19898;DHT22;10111;50.814;4.572;2023-05-07T11:39:45;20.30;99.90
19898;DHT22;10111;50.814;4.572;2023-05-07T11:42:34;20.30;99.90
19898;DHT22;10111;50.814;4.572;2023-05-07T11:45:01;20.40;99.90
19898;DHT22;10111;50.814;4.572;2023-05-07T11:47:30;20.50;99.90
19898;DHT22;10111;50.814;4.572;2023-05-07T11:49:55;20.60;99.90
19898;DHT22;10111;50.814;4.572;2023-05-07T11:52:23;20.50;99.90
19898;DHT22;10111;50.814;4.572;2023-05-07T11:54:53;20.50;99.90
19898;DHT22;10111;50.814;4.572;2023-05-07T11:57:21;20.50;99.90
19898;DHT22;10111;50.814;4.572;2023-05-07T11:59:47;20.50;99.90
19898;DHT22;10111;50.814;4.572;2023-05-07T12:02:14;20.50;99.90
19898;DHT22;10111;50.814;4.572;2023-05-07T12:04:41;20.50;99.90
19898;DHT22;10111;50.814;4.572;2023-05-07T12:07:13;20.50;99.90
19898;DHT22;10111;50.814;4.572;2023-05-07T12:09:40;20.60;99.90
19898;DHT22;10111;50.814;4.572;2023-05-07T12:12:06;20.70;99.90
19898;DHT22;10111;50.814;4.572;2023-05-07T12:14:32;20.70;99.90
19898;DHT22;10111;50.814;4.572;2023-05-07T12:16:59;20.60;99.90
19898;DHT22;10111;50.814;4.572;2023-05-07T12:19:31;20.60;99.90
19898;DHT22;10111;50.814;4.572;2023-05-07T12:21:57;20.60;99.90
19898;DHT22;10111;50.814;4.572;2023-05-07T12:24:22;20.60;99.90
19898;DHT22;10111;50.814;4.572;2023-05-07T12:26:48;20.50;99.90
19898;DHT22;10111;50.814;4.572;2023-05-07T12:29:15;20.50;99.90
19898;DHT22;10111;50.814;4.572;2023-05-07T12:31:43;20.50;99.90
19898;DHT22;10111;50.814;4.572;2023-05-07T12:34:11;20.60;99.90
19898;DHT22;10111;50.814;4.572;2023-05-07T12:36:40;20.50;99.90
19898;DHT22;10111;50.814;4.572;2023-05-07T12:39:07;20.40;99.90
19898;DHT22;10111;50.814;4.572;2023-05-07T12:44:23;20.50;99.90
19898;DHT22;10111;50.814;4.572;2023-05-07T12:46:49;20.60;99.90
19898;DHT22;10111;50.814;4.572;2023-05-07T12:49:15;20.70;99.90
19898;DHT22;10111;50.814;4.572;2023-05-07T12:51:41;20.70;99.90
19898;DHT22;10111;50.814;4.572;2023-05-07T12:54:07;20.70;99.90
19898;DHT22;10111;50.814;4.572;2023-05-07T12:56:35;20.70;99.90
19898;DHT22;10111;50.814;4.572;2023-05-07T12:59:01;20.70;99.90
19898;DHT22;10111;50.814;4.572;2023-05-07T13:01:31;20.70;99.90
19898;DHT22;10111;50.814;4.572;2023-05-07T13:04:02;20.70;99.90
19898;DHT22;10111;50.814;4.572;2023-05-07T13:06:29;20.70;99.90
19898;DHT22;10111;50.814;4.572;2023-05-07T13:08:55;20.80;99.90
19898;DHT22;10111;50.814;4.572;2023-05-07T13:11:21;20.80;99.90
19898;DHT22;10111;50.814;4.572;2023-05-07T13:13:46;20.70;99.90
19898;DHT22;10111;50.814;4.572;2023-05-07T13:16:12;20.70;99.90
19898;DHT22;10111;50.814;4.572;2023-05-07T13:18:39;20.80;99.90
19898;DHT22;10111;50.814;4.572;2023-05-07T13:21:05;20.80;99.90
19898;DHT22;10111;50.814;4.572;2023-05-07T13:23:31;20.80;99.90
19898;DHT22;10111;50.814;4.572;2023-05-07T13:25:57;20.60;99.90
19898;DHT22;10111;50.814;4.572;2023-05-07T13:28:23;20.60;99.90
19898;DHT22;10111;50.814;4.572;2023-05-07T13:30:49;20.60;99.90
19898;DHT22;10111;50.814;4.572;2023-05-07T13:33:17;20.70;99.90
19898;DHT22;10111;50.814;4.572;2023-05-07T13:35:43;20.80;99.90
19898;DHT22;10111;50.814;4.572;2023-05-07T13:38:08;20.70;99.90
19898;DHT22;10111;50.814;4.572;2023-05-07T13:40:34;20.80;99.90
19898;DHT22;10111;50.814;4.572;2023-05-07T13:43:00;20.80;99.90
19898;DHT22;10111;50.814;4.572;2023-05-07T13:45:28;20.80;99.90
19898;DHT22;10111;50.814;4.572;2023-05-07T13:47:55;20.80;99.90
19898;DHT22;10111;50.814;4.572;2023-05-07T13:50:21;20.70;99.90
19898;DHT22;10111;50.814;4.572;2023-05-07T13:52:46;20.70;99.90
19898;DHT22;10111;50.814;4.572;2023-05-07T13:55:20;20.70;99.90
19898;DHT22;10111;50.814;4.572;2023-05-07T13:57:46;20.70;99.90
19898;DHT22;10111;50.814;4.572;2023-05-07T14:00:13;20.60;99.90
19898;DHT22;10111;50.814;4.572;2023-05-07T14:02:40;20.50;99.90
19898;DHT22;10111;50.814;4.572;2023-05-07T14:05:06;20.50;99.90
19898;DHT22;10111;50.814;4.572;2023-05-07T14:07:32;20.50;99.90
19898;DHT22;10111;50.814;4.572;2023-05-07T14:09:58;20.50;99.90
19898;DHT22;10111;50.814;4.572;2023-05-07T14:12:24;20.50;99.90
19898;DHT22;10111;50.814;4.572;2023-05-07T14:14:50;20.50;99.90
19898;DHT22;10111;50.814;4.572;2023-05-07T14:17:19;20.40;99.90
19898;DHT22;10111;50.814;4.572;2023-05-07T14:19:45;20.40;99.90
19898;DHT22;10111;50.814;4.572;2023-05-07T14:22:13;20.40;99.90
19898;DHT22;10111;50.814;4.572;2023-05-07T14:24:40;20.50;99.90
19898;DHT22;10111;50.814;4.572;2023-05-07T14:27:06;20.60;99.90
19898;DHT22;10111;50.814;4.572;2023-05-07T14:29:32;20.50;99.90
19898;DHT22;10111;50.814;4.572;2023-05-07T14:31:57;20.50;99.90
19898;DHT22;10111;50.814;4.572;2023-05-07T14:34:23;20.50;99.90
19898;DHT22;10111;50.814;4.572;2023-05-07T14:36:49;20.50;99.90
19898;DHT22;10111;50.814;4.572;2023-05-07T14:39:14;20.40;99.90
19898;DHT22;10111;50.814;4.572;2023-05-07T14:41:40;20.30;99.90
19898;DHT22;10111;50.814;4.572;2023-05-07T14:44:06;20.30;99.90
19898;DHT22;10111;50.814;4.572;2023-05-07T14:46:31;20.40;99.90
19898;DHT22;10111;50.814;4.572;2023-05-07T14:48:57;20.40;99.90
19898;DHT22;10111;50.814;4.572;2023-05-07T14:51:23;20.40;99.90
19898;DHT22;10111;50.814;4.572;2023-05-07T14:53:50;20.40;99.90
19898;DHT22;10111;50.814;4.572;2023-05-07T14:56:16;20.40;99.90
19898;DHT22;10111;50.814;4.572;2023-05-07T14:58:42;20.40;99.90
19898;DHT22;10111;50.814;4.572;2023-05-07T15:01:08;20.40;99.90
19898;DHT22;10111;50.814;4.572;2023-05-07T15:03:34;20.40;99.90
19898;DHT22;10111;50.814;4.572;2023-05-07T15:06:00;20.60;99.90
19898;DHT22;10111;50.814;4.572;2023-05-07T15:08:26;20.50;99.90
19898;DHT22;10111;50.814;4.572;2023-05-07T15:10:51;20.40;99.90
19898;DHT22;10111;50.814;4.572;2023-05-07T15:13:17;20.40;99.90
19898;DHT22;10111;50.814;4.572;2023-05-07T15:15:44;20.40;99.90
19898;DHT22;10111;50.814;4.572;2023-05-07T15:18:11;20.40;99.90
19898;DHT22;10111;50.814;4.572;2023-05-07T15:20:36;20.50;99.90
19898;DHT22;10111;50.814;4.572;2023-05-07T15:23:02;20.50;99.90
19898;DHT22;10111;50.814;4.572;2023-05-07T15:25:31;20.40;99.90
19898;DHT22;10111;50.814;4.572;2023-05-07T15:27:58;20.40;99.90
19898;DHT22;10111;50.814;4.572;2023-05-07T15:30:24;20.50;99.90
19898;DHT22;10111;50.814;4.572;2023-05-07T15:32:50;20.50;99.90
19898;DHT22;10111;50.814;4.572;2023-05-07T15:35:16;20.50;99.90
19898;DHT22;10111;50.814;4.572;2023-05-07T15:37:42;20.50;99.90